createdAt,value
2023-04-30T00:01:42.169Z,65.65
2023-04-30T00:06:44.755Z,65.77
2023-04-30T00:11:48.518Z,65.89
2023-04-30T00:16:51.043Z,66.02
2023-04-30T00:21:55.103Z,66.20
2023-04-30T00:26:58.579Z,66.17
2023-04-30T00:32:01.054Z,66.34
2023-04-30T00:37:03.994Z,66.33
2023-04-30T00:42:06.617Z,66.24
2023-04-30T00:47:08.950Z,66.50
2023-04-30T00:52:11.383Z,66.51
2023-04-30T00:57:16.531Z,66.63
2023-04-30T01:02:19.113Z,66.82
2023-04-30T01:07:22.071Z,66.87
2023-04-30T01:12:33.776Z,68.26
2023-04-30T01:17:41.966Z,67.41
2023-04-30T01:22:55.167Z,68.05
2023-04-30T01:28:10.873Z,68.45
2023-04-30T01:33:14.191Z,67.08
2023-04-30T01:38:24.714Z,67.82
2023-04-30T01:43:34.854Z,67.43
2023-04-30T01:49:01.274Z,68.45
2023-04-30T01:54:11.756Z,67.69
2023-04-30T01:59:15.076Z,67.37
2023-04-30T02:04:17.527Z,67.26
2023-04-30T02:09:19.960Z,67.57
2023-04-30T02:14:22.374Z,67.78
2023-04-30T02:19:48.399Z,67.92
2023-04-30T02:24:50.876Z,68.13
2023-04-30T02:29:54.137Z,68.19
2023-04-30T02:34:57.028Z,68.34
2023-04-30T02:39:59.500Z,68.58
2023-04-30T02:45:02.252Z,68.60
2023-04-30T02:50:07.488Z,68.97
2023-04-30T02:55:10.094Z,69.16
2023-04-30T03:00:13.249Z,69.58
2023-04-30T03:05:16.225Z,69.61
2023-04-30T03:10:19.468Z,69.55
2023-04-30T03:15:22.543Z,69.98
2023-04-30T03:20:24.968Z,69.96
2023-04-30T03:25:27.389Z,70.61
2023-04-30T03:30:29.823Z,70.82
2023-04-30T03:35:32.732Z,71.13
2023-04-30T03:40:35.604Z,71.53
2023-04-30T03:45:38.314Z,71.53
2023-04-30T03:50:40.880Z,71.85
2023-04-30T03:55:43.524Z,71.68
2023-04-30T04:00:48.638Z,72.04
2023-04-30T04:05:51.049Z,72.40
2023-04-30T04:10:53.728Z,72.47
2023-04-30T04:15:56.140Z,72.56
2023-04-30T04:20:58.623Z,72.44
2023-04-30T04:26:01.956Z,71.99
2023-04-30T04:31:04.626Z,72.01
2023-04-30T04:36:07.962Z,71.87
2023-04-30T04:41:10.339Z,71.47
2023-04-30T04:46:14.475Z,71.13
2023-04-30T04:51:16.920Z,70.65
2023-04-30T04:56:19.309Z,69.82
2023-04-30T05:01:22.153Z,69.29
2023-04-30T05:06:24.578Z,68.84
2023-04-30T05:11:29.305Z,68.50
2023-04-30T05:16:32.120Z,67.73
2023-04-30T05:21:34.678Z,66.92
2023-04-30T05:26:37.110Z,66.75
2023-04-30T05:31:39.555Z,65.87
2023-04-30T05:36:43.188Z,64.64
2023-04-30T05:41:49.119Z,64.48
2023-04-30T05:46:51.707Z,63.83
2023-04-30T05:51:54.091Z,62.40
2023-04-30T05:56:56.477Z,61.94
2023-04-30T06:01:58.934Z,61.46
2023-04-30T06:07:01.564Z,61.23
2023-04-30T06:12:04.437Z,60.87
2023-04-30T06:17:06.884Z,59.02
2023-04-30T06:22:09.489Z,58.53
2023-04-30T06:27:11.810Z,57.54
2023-04-30T06:32:14.279Z,55.74
2023-04-30T06:37:16.685Z,54.78
2023-04-30T06:42:19.032Z,54.97
2023-04-30T06:47:21.330Z,54.21
2023-04-30T06:52:23.683Z,53.13
2023-04-30T06:57:26.154Z,52.40
2023-04-30T07:02:28.612Z,52.14
2023-04-30T07:07:31.660Z,51.46
2023-04-30T07:12:34.385Z,51.50
2023-04-30T07:17:37.548Z,50.86
2023-04-30T07:22:39.973Z,50.53
2023-04-30T07:27:42.635Z,50.15
2023-04-30T07:32:45.501Z,50.03
2023-04-30T07:37:48.310Z,48.78
2023-04-30T07:42:50.904Z,48.46
2023-04-30T07:47:53.580Z,48.63
2023-04-30T07:52:56.149Z,48.00
2023-04-30T07:57:59.263Z,47.17
2023-04-30T08:03:01.916Z,46.53
2023-04-30T08:08:04.705Z,45.73
2023-04-30T08:13:07.217Z,45.34
2023-04-30T08:18:10.163Z,44.81
2023-04-30T08:23:12.626Z,45.21
2023-04-30T08:28:15.050Z,45.14
2023-04-30T08:33:18.149Z,44.39
2023-04-30T08:38:20.700Z,44.66
2023-04-30T08:43:23.932Z,44.12
2023-04-30T08:48:27.099Z,44.08
2023-04-30T08:53:36.096Z,44.53
2023-04-30T08:58:38.560Z,44.34
2023-04-30T09:03:41.107Z,44.54
2023-04-30T09:08:48.521Z,43.90
2023-04-30T09:13:55.108Z,44.43
2023-04-30T09:18:57.833Z,43.66
2023-04-30T09:24:02.483Z,43.98
2023-04-30T09:29:08.404Z,43.67
2023-04-30T09:34:11.320Z,43.61
2023-04-30T09:39:17.907Z,43.76
2023-04-30T09:44:30.172Z,42.90
2023-04-30T09:49:32.823Z,44.01
2023-04-30T09:54:36.084Z,43.99
2023-04-30T09:59:40.092Z,43.62
2023-04-30T10:04:44.068Z,43.73
2023-04-30T10:10:25.344Z,44.47
2023-04-30T10:15:36.009Z,43.71
2023-04-30T10:20:39.525Z,43.74
2023-04-30T10:25:41.897Z,44.06
2023-04-30T10:30:44.609Z,43.78
2023-04-30T10:35:55.962Z,43.04
2023-04-30T10:41:02.777Z,43.59
2023-04-30T10:46:05.295Z,43.43
2023-04-30T10:51:10.263Z,43.16
2023-04-30T10:56:13.628Z,44.04
2023-04-30T11:01:17.886Z,43.33
2023-04-30T11:06:22.043Z,43.23
2023-04-30T11:11:24.502Z,43.41
2023-04-30T11:16:49.705Z,43.41
2023-04-30T11:22:04.259Z,43.28
2023-04-30T11:27:06.775Z,43.78
2023-04-30T11:32:09.741Z,43.40
2023-04-30T11:37:20.935Z,42.95
2023-04-30T11:42:23.399Z,43.38
2023-04-30T11:47:25.871Z,43.13
2023-04-30T11:52:28.830Z,43.23
2023-04-30T11:57:36.085Z,43.00
2023-04-30T12:02:39.808Z,43.19
2023-04-30T12:07:47.521Z,42.88
2023-04-30T12:12:53.008Z,43.46
2023-04-30T12:17:57.938Z,42.96
2023-04-30T12:23:01.445Z,42.54
2023-04-30T12:28:03.880Z,43.01
2023-04-30T12:33:06.542Z,43.40
2023-04-30T12:38:09.995Z,43.23
2023-04-30T12:43:16.182Z,42.81
2023-04-30T12:48:20.275Z,43.21
2023-04-30T12:53:24.108Z,43.05
2023-04-30T12:58:31.540Z,42.74
2023-04-30T13:03:33.999Z,43.34
2023-04-30T13:08:45.610Z,43.64
2023-04-30T13:13:52.553Z,43.23
2023-04-30T13:18:56.495Z,43.67
2023-04-30T13:29:02.063Z,43.78
2023-04-30T13:34:04.509Z,43.84
2023-04-30T13:39:07.185Z,44.21
2023-04-30T13:44:09.813Z,44.48
2023-04-30T13:49:12.259Z,44.76
2023-04-30T13:54:14.685Z,44.72
2023-04-30T13:59:17.144Z,45.40
2023-04-30T14:04:20.136Z,45.57
2023-04-30T14:09:23.106Z,45.87
2023-04-30T14:14:26.713Z,45.76
2023-04-30T14:19:29.299Z,45.63
2023-04-30T14:24:32.034Z,45.99
2023-04-30T14:29:34.465Z,46.28
2023-04-30T14:34:37.915Z,46.21
2023-04-30T14:39:41.885Z,46.22
2023-04-30T14:44:44.576Z,46.45
2023-04-30T14:49:47.824Z,46.75
2023-04-30T14:54:50.202Z,47.04
2023-04-30T14:59:55.528Z,47.22
2023-04-30T15:04:58.263Z,47.61
2023-04-30T15:10:01.146Z,48.10
2023-04-30T15:15:05.111Z,47.49
2023-04-30T15:20:09.107Z,47.81
2023-04-30T15:25:11.626Z,47.97
2023-04-30T15:30:14.082Z,47.84
2023-04-30T15:35:16.499Z,47.98
2023-04-30T15:40:18.824Z,48.00
2023-04-30T15:45:22.462Z,48.03
2023-04-30T15:50:25.042Z,47.92
2023-04-30T15:55:27.490Z,48.48
2023-04-30T16:00:30.603Z,48.74
2023-04-30T16:05:35.321Z,49.29
2023-04-30T16:10:38.260Z,50.54
2023-04-30T16:15:40.601Z,51.10
2023-04-30T16:20:45.096Z,52.53
2023-04-30T16:25:47.528Z,53.56
2023-04-30T16:30:53.287Z,53.76
2023-04-30T16:35:55.696Z,54.64
2023-04-30T16:40:58.489Z,55.16
2023-04-30T16:46:01.038Z,56.44
2023-04-30T16:51:04.038Z,57.14
2023-04-30T16:56:06.701Z,58.22
2023-04-30T17:01:09.720Z,58.47
2023-04-30T17:06:14.583Z,58.63
2023-04-30T17:11:20.858Z,59.68
2023-04-30T17:16:23.770Z,59.97
2023-04-30T17:21:30.132Z,60.68
2023-04-30T17:26:32.586Z,60.87
2023-04-30T17:31:35.091Z,60.90
2023-04-30T17:36:37.809Z,61.48
2023-04-30T17:41:40.210Z,61.75
2023-04-30T17:46:42.714Z,62.26
2023-04-30T17:51:48.658Z,62.71
2023-04-30T17:56:53.463Z,62.79
2023-04-30T18:01:56.432Z,63.56
2023-04-30T18:06:58.891Z,63.72
2023-04-30T18:12:01.327Z,63.63
2023-04-30T18:17:04.051Z,64.43
2023-04-30T18:22:09.009Z,64.76
2023-04-30T18:27:11.917Z,65.10
2023-04-30T18:32:15.060Z,65.62
2023-04-30T18:37:21.333Z,66.23
2023-04-30T18:42:26.149Z,66.21
2023-04-30T18:47:30.840Z,66.55
2023-04-30T18:52:33.854Z,66.92
2023-04-30T18:57:36.401Z,67.21
2023-04-30T19:02:38.904Z,67.54
2023-04-30T19:07:42.675Z,67.87
2023-04-30T19:12:45.254Z,68.17
2023-04-30T19:17:47.963Z,68.56
2023-04-30T19:22:50.532Z,68.69
2023-04-30T19:27:52.988Z,68.77
2023-04-30T19:32:55.527Z,68.96
2023-04-30T19:37:58.062Z,69.56
2023-04-30T19:43:00.429Z,69.87
2023-04-30T19:48:02.857Z,69.83
2023-04-30T19:53:05.358Z,69.99
2023-04-30T19:58:07.934Z,70.10
2023-04-30T20:03:10.468Z,69.88
2023-04-30T20:08:13.039Z,70.26
2023-04-30T20:13:16.242Z,70.62
2023-04-30T20:18:21.140Z,70.68
2023-04-30T20:23:23.722Z,70.74
2023-04-30T20:28:26.109Z,70.95
2023-04-30T20:33:29.263Z,70.93
2023-04-30T20:38:31.648Z,71.12
2023-04-30T20:43:34.262Z,71.14
2023-04-30T20:48:36.675Z,71.21
2023-04-30T20:53:39.025Z,71.24
2023-04-30T20:58:43.214Z,71.45
2023-04-30T21:03:45.613Z,71.59
2023-04-30T21:08:49.008Z,71.64
2023-04-30T21:13:51.550Z,72.18
2023-04-30T21:18:54.004Z,72.00
2023-04-30T21:23:56.436Z,72.11
2023-04-30T21:28:58.733Z,72.35
2023-04-30T21:34:01.116Z,72.61
2023-04-30T21:39:04.401Z,72.40
2023-04-30T21:44:06.793Z,72.51
2023-04-30T21:49:10.204Z,72.84
2023-04-30T21:54:13.042Z,73.02
2023-04-30T21:59:15.539Z,72.82
2023-04-30T22:04:18.184Z,72.99
2023-04-30T22:09:20.890Z,73.03
2023-04-30T22:14:23.668Z,73.48
2023-04-30T22:19:26.015Z,73.60
2023-04-30T22:24:28.471Z,73.32
2023-04-30T22:29:31.115Z,73.35
2023-04-30T22:34:40.594Z,74.47
2023-04-30T22:39:43.277Z,73.44
2023-04-30T22:44:46.226Z,73.54
2023-04-30T22:49:48.729Z,73.51
2023-04-30T22:54:51.193Z,73.45
2023-04-30T22:59:53.776Z,73.95
2023-04-30T23:04:56.446Z,73.69
2023-04-30T23:09:59.037Z,73.79
2023-04-30T23:15:02.378Z,73.89
2023-04-30T23:20:08.231Z,74.26
2023-04-30T23:25:10.621Z,74.21
2023-04-30T23:30:13.289Z,74.25
2023-04-30T23:35:15.719Z,74.21
2023-04-30T23:40:20.063Z,74.30
2023-04-30T23:45:22.743Z,74.50
2023-04-30T23:50:25.256Z,74.61
2023-04-30T23:55:27.786Z,74.54
